Roanoke Regional Airport Airport (ROA)

 

Airport Diagram
Current Weather/Forecast (MVFR Conditions)
METAR KROA 171954Z 01006KT 10SM BKN023 07/01 A3007 RMK AO2 SLP187 T00720006
TAF KROA 171906Z 1719/1818 04008KT P6SM OVC025 FM172100 05005KT P6SM BKN035 FM180600 VRB03KT P6SM OVC015 FM181500 27004KT P6SM BKN035

All Charts
General
Chart Name Download
AIRPORT DIAGRAM
TAKEOFF MINIMUMS
ALTERNATE MINIMUMS
HOT SPOT

Departures
Chart Name Download
BUFIY THREE (RNAV)
DIXXY EIGHT
HOKEE THREE
MONAT THREE (RNAV)
SCUTA THREE (RNAV)

Approaches
Chart Name Download
ILS OR LOC RWY 34
RNAV (RNP) Z RWY 06
RNAV (RNP) Z RWY 24
RNAV (RNP) Z RWY 34
RNAV (GPS) Y RWY 06
RNAV (GPS) Y RWY 24
RNAV (GPS) Y RWY 34
LDA Y RWY 06
LDA Z RWY 06
VOR/DME-A


Inbound Traffic (Arrivals)

No inbound traffic.


Outbound Traffic (Departures)

No outbound traffic.